createdAt,value
2018-03-01T18:37:28.205Z,58.90
2018-03-01T18:39:55.664Z,50.10
2018-03-01T18:42:23.250Z,49.90
2018-03-01T18:44:50.657Z,53.30
2018-03-01T18:47:18.141Z,50.20
2018-03-01T18:49:45.584Z,50.00
2018-03-01T18:52:13.017Z,50.40
2018-03-01T18:54:40.869Z,50.00
2018-03-01T18:57:08.537Z,50.60
2018-03-01T18:59:35.988Z,51.00
2018-03-01T19:02:03.470Z,50.70
2018-03-01T19:04:30.947Z,50.80
2018-03-01T19:06:59.172Z,51.20
2018-03-01T19:09:26.633Z,51.10
2018-03-01T19:11:54.096Z,51.30
2018-03-01T19:14:21.655Z,51.00
2018-03-01T19:16:49.165Z,51.40
2018-03-01T19:19:17.027Z,51.30
2018-03-01T19:21:44.561Z,51.80
2018-03-01T19:24:12.050Z,51.70
2018-03-01T19:26:40.291Z,52.30
2018-03-01T19:29:07.791Z,52.20
2018-03-01T19:31:35.321Z,51.80
2018-03-01T19:34:02.796Z,52.20
2018-03-01T19:36:30.244Z,52.00
2018-03-01T19:38:57.717Z,52.50
2018-03-01T19:41:25.559Z,52.00
2018-03-01T19:43:53.770Z,52.00
2018-03-01T19:46:21.332Z,52.50
2018-03-01T19:48:49.184Z,52.20
2018-03-01T19:51:17.493Z,52.10
2018-03-01T19:53:44.959Z,52.30
2018-03-01T19:56:12.442Z,53.50
2018-03-01T19:58:39.843Z,58.00
2018-03-01T20:01:07.840Z,54.20
2018-03-01T20:03:35.333Z,52.70
2018-03-01T20:06:03.565Z,53.20
2018-03-01T20:08:31.103Z,52.70
2018-03-01T20:10:58.596Z,52.90
2018-03-01T20:13:26.052Z,53.00
2018-03-01T20:15:53.890Z,53.50
2018-03-01T20:18:21.380Z,55.30
2018-03-01T20:20:48.814Z,53.60
2018-03-01T20:23:16.253Z,53.00
2018-03-01T20:25:43.842Z,53.50
2018-03-01T20:28:11.276Z,53.60
2018-03-01T20:30:38.797Z,55.90
2018-03-01T20:33:06.267Z,53.50
2018-03-01T20:35:33.823Z,53.90
2018-03-01T20:38:01.697Z,53.40
2018-03-01T20:40:29.916Z,53.30
2018-03-01T20:42:58.430Z,53.90
2018-03-01T20:45:25.990Z,53.40
2018-03-01T20:47:53.434Z,53.80
2018-03-01T20:50:21.734Z,54.50
2018-03-01T20:52:49.230Z,54.40
2018-03-01T20:55:16.700Z,54.20
2018-03-01T20:57:44.132Z,54.40
2018-03-01T21:00:11.593Z,54.30
2018-03-01T21:02:39.141Z,54.50
2018-03-01T21:05:06.596Z,54.70
2018-03-01T21:07:34.055Z,54.80
2018-03-01T21:10:01.490Z,54.90
2018-03-01T21:12:29.261Z,54.80
2018-03-01T21:14:57.475Z,54.90
2018-03-01T21:17:24.990Z,54.90
2018-03-01T21:19:53.961Z,54.80
2018-03-01T21:22:22.260Z,55.20
2018-03-01T21:24:49.696Z,55.20
2018-03-01T21:27:17.147Z,55.10
2018-03-01T21:29:44.587Z,55.10
2018-03-01T21:32:12.191Z,55.10
2018-03-01T21:34:39.613Z,55.10
2018-03-01T21:37:07.182Z,55.30
2018-03-01T21:39:34.608Z,55.30
2018-03-01T21:42:02.096Z,55.40
2018-03-01T21:44:29.564Z,55.60
2018-03-01T21:47:06.986Z,55.50
2018-03-01T21:49:34.424Z,55.90
2018-03-01T21:52:01.878Z,55.70
2018-03-01T21:54:29.382Z,55.60
2018-03-01T21:56:56.820Z,55.40
2018-03-01T21:59:24.362Z,55.90
2018-03-01T22:01:51.853Z,55.70
2018-03-01T22:04:19.309Z,56.00
2018-03-01T22:06:47.192Z,55.60
2018-03-01T22:09:15.408Z,55.70
2018-03-01T22:11:43.621Z,56.40
2018-03-01T22:14:11.177Z,55.70
2018-03-01T22:16:39.380Z,55.50
2018-03-01T22:19:07.277Z,55.50
2018-03-01T22:21:36.273Z,56.40
2018-03-01T22:24:04.513Z,56.30
2018-03-01T22:26:32.384Z,55.80
2018-03-01T22:28:59.880Z,55.60
2018-03-01T22:31:27.317Z,55.60
2018-03-01T22:33:54.761Z,56.00
2018-03-01T22:36:22.251Z,56.00
2018-03-01T22:38:50.112Z,56.30
2018-03-01T22:41:17.575Z,56.40
2018-03-01T22:43:45.789Z,56.40
2018-03-01T22:46:13.300Z,56.30
2018-03-01T22:48:40.756Z,56.50
2018-03-01T22:51:08.202Z,56.50
2018-03-01T22:53:35.681Z,57.10
2018-03-01T22:56:03.113Z,56.60
2018-03-01T22:58:31.342Z,56.90
2018-03-01T23:00:58.810Z,56.50
2018-03-01T23:03:26.264Z,59.90
2018-03-01T23:05:53.729Z,56.80
2018-03-01T23:08:21.168Z,60.20
2018-03-01T23:10:48.648Z,62.10
2018-03-01T23:13:16.092Z,65.20
2018-03-01T23:15:43.649Z,58.90
2018-03-01T23:18:11.091Z,63.50
2018-03-01T23:20:39.300Z,57.00
2018-03-01T23:23:06.776Z,60.50
2018-03-01T23:25:34.241Z,60.30
2018-03-01T23:28:01.687Z,59.20
2018-03-01T23:30:29.140Z,58.50
2018-03-01T23:32:57.012Z,57.50
2018-03-01T23:35:24.900Z,57.40
2018-03-01T23:37:52.364Z,57.90
2018-03-01T23:40:19.898Z,58.30
2018-03-01T23:42:47.331Z,58.20
2018-03-01T23:45:15.562Z,58.60
2018-03-01T23:47:43.000Z,58.60
2018-03-01T23:50:10.444Z,58.40
2018-03-01T23:52:38.023Z,58.50
2018-03-01T23:55:05.512Z,58.50
2018-03-01T23:57:33.048Z,58.40
